메인 페이지
METAR-TAF:

METAR-TAF

공항 :

리노, 네바다, 미국

위도: 39-40-05N, 경도: 119-52-35W, 고도: 1539m

현재 날씨관측

예보는 16분 전, 02:55시(UTC)에 발표되었습니다.
남서10kt, 순간 최대 풍속 16kt
온도 24°C
습도 34%
기압 1017 hPa
시정: 16.1km
고도 11000ft 상공 구름 조금

METAR: KRTS 150255Z AUTO 23010G16KT 10SM FEW110 24/07 A3004 RMK AO2

시각: 20:11 (03:11 UTC)


TAF: 누락

4,000개 이상의 공항 관측 자료 및 예보 (METAR 및 TAF 보고).

지도상에서 검색 가능한 기상관측소가 노란 점과 빨간 점으로 표시되어 있습니다.

기상관측소 명을 보려면 표시 위로 마우스를 이동하세요.

날씨 관측과 예보를 보려면 클릭하세요.

지도 변경 : 확대하려면 엑스 표시가 있는 녹색 버튼, 축소하려면 빼기 표시가 있는 녹색 버튼, 다음 페이지의 지도를 보려면 녹색 화살표를 클릭하세요.


METAR-TAF: